sensor_id;sensor_type;location;lat;lon;timestamp;pressure;altitude;pressure_sealevel;temperature;humidity
55171;BME280;41060;47.510;8.680;2023-07-31T00:01:44;97235.31;;;22.94;40.54
55171;BME280;41060;47.510;8.680;2023-07-31T00:04:10;97234.75;;;22.49;41.60
55171;BME280;41060;47.510;8.680;2023-07-31T00:06:38;97235.53;;;22.22;41.85
55171;BME280;41060;47.510;8.680;2023-07-31T00:09:06;97222.28;;;22.06;42.65
55171;BME280;41060;47.510;8.680;2023-07-31T00:11:33;97227.06;;;21.89;43.16
55171;BME280;41060;47.510;8.680;2023-07-31T00:14:00;97231.03;;;22.08;41.82
55171;BME280;41060;47.510;8.680;2023-07-31T00:16:26;97224.47;;;22.17;42.11
55171;BME280;41060;47.510;8.680;2023-07-31T00:18:53;97226.75;;;21.77;42.91
55171;BME280;41060;47.510;8.680;2023-07-31T00:21:20;97233.41;;;21.81;42.61
55171;BME280;41060;47.510;8.680;2023-07-31T00:23:47;97230.28;;;21.63;43.53
55171;BME280;41060;47.510;8.680;2023-07-31T00:26:15;97240.09;;;21.85;43.11
55171;BME280;41060;47.510;8.680;2023-07-31T00:28:42;97243.03;;;21.40;43.42
55171;BME280;41060;47.510;8.680;2023-07-31T00:31:09;97252.13;;;21.09;43.87
55171;BME280;41060;47.510;8.680;2023-07-31T00:33:35;97239.75;;;21.00;44.43
55171;BME280;41060;47.510;8.680;2023-07-31T00:36:03;97233.53;;;21.15;44.24
55171;BME280;41060;47.510;8.680;2023-07-31T00:38:29;97232.72;;;21.43;43.48
55171;BME280;41060;47.510;8.680;2023-07-31T00:40:55;97226.34;;;21.66;43.50
55171;BME280;41060;47.510;8.680;2023-07-31T00:43:24;97231.53;;;21.82;42.94
55171;BME280;41060;47.510;8.680;2023-07-31T00:45:50;97238.31;;;21.93;42.37
55171;BME280;41060;47.510;8.680;2023-07-31T00:48:17;97239.88;;;22.02;42.32
55171;BME280;41060;47.510;8.680;2023-07-31T00:50:44;97231.38;;;21.83;42.86
55171;BME280;41060;47.510;8.680;2023-07-31T00:53:11;97217.84;;;21.98;42.67
55171;BME280;41060;47.510;8.680;2023-07-31T00:55:38;97214.31;;;21.98;42.51
55171;BME280;41060;47.510;8.680;2023-07-31T00:58:05;97216.97;;;21.76;42.93
55171;BME280;41060;47.510;8.680;2023-07-31T01:00:33;97228.97;;;21.74;42.94
55171;BME280;41060;47.510;8.680;2023-07-31T01:03:00;97222.50;;;21.24;43.67
55171;BME280;41060;47.510;8.680;2023-07-31T01:05:33;97219.81;;;21.24;43.56
55171;BME280;41060;47.510;8.680;2023-07-31T01:08:08;97223.16;;;21.12;44.40
55171;BME280;41060;47.510;8.680;2023-07-31T01:10:46;97215.44;;;21.23;43.27
55171;BME280;41060;47.510;8.680;2023-07-31T01:13:15;97217.25;;;21.52;43.43
55171;BME280;41060;47.510;8.680;2023-07-31T01:15:44;97209.72;;;21.77;42.78
55171;BME280;41060;47.510;8.680;2023-07-31T01:18:10;97204.72;;;21.44;43.20
55171;BME280;41060;47.510;8.680;2023-07-31T01:20:37;97211.34;;;21.42;43.49
55171;BME280;41060;47.510;8.680;2023-07-31T01:23:35;97205.88;;;20.91;44.43
55171;BME280;41060;47.510;8.680;2023-07-31T01:26:13;97208.59;;;21.21;44.22
55171;BME280;41060;47.510;8.680;2023-07-31T01:28:50;97209.03;;;21.39;43.37
55171;BME280;41060;47.510;8.680;2023-07-31T01:31:22;97199.72;;;21.56;43.09
55171;BME280;41060;47.510;8.680;2023-07-31T01:33:53;97197.75;;;21.79;42.80
55171;BME280;41060;47.510;8.680;2023-07-31T01:36:20;97190.88;;;21.98;42.06
55171;BME280;41060;47.510;8.680;2023-07-31T01:38:46;97197.19;;;22.05;41.97
55171;BME280;41060;47.510;8.680;2023-07-31T01:41:16;97189.03;;;21.99;42.13
55171;BME280;41060;47.510;8.680;2023-07-31T01:43:42;97190.09;;;22.04;41.95
55171;BME280;41060;47.510;8.680;2023-07-31T01:46:09;97187.81;;;22.01;42.22
55171;BME280;41060;47.510;8.680;2023-07-31T01:48:36;97189.44;;;22.17;41.95
55171;BME280;41060;47.510;8.680;2023-07-31T01:51:03;97185.13;;;22.22;41.79
55171;BME280;41060;47.510;8.680;2023-07-31T01:53:32;97182.06;;;21.90;42.54
55171;BME280;41060;47.510;8.680;2023-07-31T01:55:59;97176.75;;;21.96;42.37
55171;BME280;41060;47.510;8.680;2023-07-31T01:58:27;97167.91;;;22.02;42.22
55171;BME280;41060;47.510;8.680;2023-07-31T02:00:53;97169.00;;;22.08;42.00
55171;BME280;41060;47.510;8.680;2023-07-31T02:03:21;97168.94;;;22.01;41.85
55171;BME280;41060;47.510;8.680;2023-07-31T02:05:48;97166.69;;;21.83;42.67
55171;BME280;41060;47.510;8.680;2023-07-31T02:08:16;97171.78;;;21.42;43.23
55171;BME280;41060;47.510;8.680;2023-07-31T02:10:43;97164.53;;;21.43;43.20
55171;BME280;41060;47.510;8.680;2023-07-31T02:13:10;97172.53;;;21.22;43.49
55171;BME280;41060;47.510;8.680;2023-07-31T02:15:37;97167.06;;;21.30;43.66
55171;BME280;41060;47.510;8.680;2023-07-31T02:18:04;97164.25;;;21.38;43.24
55171;BME280;41060;47.510;8.680;2023-07-31T02:20:33;97152.34;;;21.47;43.23
55171;BME280;41060;47.510;8.680;2023-07-31T02:23:00;97154.19;;;21.10;43.20
55171;BME280;41060;47.510;8.680;2023-07-31T02:25:27;97153.31;;;20.81;44.29
55171;BME280;41060;47.510;8.680;2023-07-31T02:27:53;97145.59;;;20.92;43.64
55171;BME280;41060;47.510;8.680;2023-07-31T02:30:20;97155.38;;;21.08;43.11
55171;BME280;41060;47.510;8.680;2023-07-31T02:32:48;97145.69;;;20.69;44.39
55171;BME280;41060;47.510;8.680;2023-07-31T02:35:15;97155.34;;;20.93;43.62
55171;BME280;41060;47.510;8.680;2023-07-31T02:37:42;97151.38;;;20.75;44.27
55171;BME280;41060;47.510;8.680;2023-07-31T02:40:09;97146.16;;;20.58;43.89
55171;BME280;41060;47.510;8.680;2023-07-31T02:42:36;97146.34;;;20.57;44.35
55171;BME280;41060;47.510;8.680;2023-07-31T02:45:03;97157.22;;;20.78;44.08
55171;BME280;41060;47.510;8.680;2023-07-31T02:47:32;97151.47;;;20.66;44.07
55171;BME280;41060;47.510;8.680;2023-07-31T02:50:00;97146.91;;;20.67;43.60
55171;BME280;41060;47.510;8.680;2023-07-31T02:52:26;97153.75;;;20.17;45.87
55171;BME280;41060;47.510;8.680;2023-07-31T02:54:53;97151.34;;;20.45;44.93
55171;BME280;41060;47.510;8.680;2023-07-31T02:57:20;97156.84;;;20.66;44.33
55171;BME280;41060;47.510;8.680;2023-07-31T02:59:46;97142.88;;;20.48;44.62
55171;BME280;41060;47.510;8.680;2023-07-31T03:02:14;97148.44;;;20.32;45.60
55171;BME280;41060;47.510;8.680;2023-07-31T03:04:40;97152.28;;;20.52;45.23
55171;BME280;41060;47.510;8.680;2023-07-31T03:07:08;97156.97;;;20.36;45.55
55171;BME280;41060;47.510;8.680;2023-07-31T03:09:35;97149.88;;;20.57;44.78
55171;BME280;41060;47.510;8.680;2023-07-31T03:12:02;97153.03;;;20.46;44.80
55171;BME280;41060;47.510;8.680;2023-07-31T03:14:28;97152.31;;;20.07;45.96
55171;BME280;41060;47.510;8.680;2023-07-31T03:16:55;97143.06;;;20.32;45.40
55171;BME280;41060;47.510;8.680;2023-07-31T03:19:22;97151.44;;;20.52;45.50
55171;BME280;41060;47.510;8.680;2023-07-31T03:24:17;97146.34;;;20.86;44.36
55171;BME280;41060;47.510;8.680;2023-07-31T03:26:43;97163.16;;;20.88;44.40
55171;BME280;41060;47.510;8.680;2023-07-31T03:29:10;97160.16;;;20.39;45.77
55171;BME280;41060;47.510;8.680;2023-07-31T03:31:37;97162.47;;;20.19;46.46
55171;BME280;41060;47.510;8.680;2023-07-31T03:34:03;97158.28;;;20.40;45.44
55171;BME280;41060;47.510;8.680;2023-07-31T03:36:30;97147.44;;;20.62;45.15
55171;BME280;41060;47.510;8.680;2023-07-31T03:38:57;97157.31;;;19.95;46.58
55171;BME280;41060;47.510;8.680;2023-07-31T03:41:25;97151.03;;;20.03;46.46
55171;BME280;41060;47.510;8.680;2023-07-31T03:43:51;97149.25;;;20.32;45.93
55171;BME280;41060;47.510;8.680;2023-07-31T03:46:19;97144.94;;;20.46;45.41
55171;BME280;41060;47.510;8.680;2023-07-31T03:48:46;97166.59;;;20.67;44.78
55171;BME280;41060;47.510;8.680;2023-07-31T03:51:12;97167.44;;;20.83;44.52
55171;BME280;41060;47.510;8.680;2023-07-31T03:53:39;97167.06;;;20.11;46.01
55171;BME280;41060;47.510;8.680;2023-07-31T03:56:06;97180.06;;;19.53;47.34
55171;BME280;41060;47.510;8.680;2023-07-31T03:58:33;97182.09;;;19.04;48.48
55171;BME280;41060;47.510;8.680;2023-07-31T04:01:02;97191.34;;;18.94;49.01
55171;BME280;41060;47.510;8.680;2023-07-31T04:03:29;97194.00;;;19.02;49.17
55171;BME280;41060;47.510;8.680;2023-07-31T04:05:56;97189.22;;;19.28;48.54
55171;BME280;41060;47.510;8.680;2023-07-31T04:08:23;97182.69;;;19.62;47.90
55171;BME280;41060;47.510;8.680;2023-07-31T04:10:50;97188.22;;;19.91;47.01
55171;BME280;41060;47.510;8.680;2023-07-31T04:13:16;97183.50;;;20.16;46.38
55171;BME280;41060;47.510;8.680;2023-07-31T04:15:49;97173.47;;;20.10;46.41
55171;BME280;41060;47.510;8.680;2023-07-31T04:18:16;97185.47;;;19.99;46.79
55171;BME280;41060;47.510;8.680;2023-07-31T04:20:42;97185.34;;;19.70;47.52
55171;BME280;41060;47.510;8.680;2023-07-31T04:23:09;97184.53;;;19.61;47.83
55171;BME280;41060;47.510;8.680;2023-07-31T04:25:36;97187.34;;;19.68;47.71
55171;BME280;41060;47.510;8.680;2023-07-31T04:28:02;97183.31;;;19.72;47.42
55171;BME280;41060;47.510;8.680;2023-07-31T04:30:29;97185.41;;;19.84;47.42
55171;BME280;41060;47.510;8.680;2023-07-31T04:32:57;97184.88;;;20.12;46.93
55171;BME280;41060;47.510;8.680;2023-07-31T04:35:24;97187.66;;;20.18;46.60
55171;BME280;41060;47.510;8.680;2023-07-31T04:37:51;97190.63;;;20.09;46.90
55171;BME280;41060;47.510;8.680;2023-07-31T04:40:17;97194.22;;;19.70;48.18
55171;BME280;41060;47.510;8.680;2023-07-31T04:42:44;97192.22;;;19.33;49.24
55171;BME280;41060;47.510;8.680;2023-07-31T04:45:14;97179.09;;;19.46;49.63
55171;BME280;41060;47.510;8.680;2023-07-31T04:47:41;97178.25;;;19.77;48.52
55171;BME280;41060;47.510;8.680;2023-07-31T04:50:09;97174.84;;;20.06;48.18
55171;BME280;41060;47.510;8.680;2023-07-31T04:52:36;97177.00;;;19.87;48.64
55171;BME280;41060;47.510;8.680;2023-07-31T04:55:03;97177.81;;;20.11;48.15
55171;BME280;41060;47.510;8.680;2023-07-31T04:57:30;97172.72;;;20.24;47.70
55171;BME280;41060;47.510;8.680;2023-07-31T04:59:57;97183.34;;;20.17;47.82
55171;BME280;41060;47.510;8.680;2023-07-31T05:02:23;97183.84;;;19.67;49.72
55171;BME280;41060;47.510;8.680;2023-07-31T05:04:50;97175.63;;;19.91;49.15
55171;BME280;41060;47.510;8.680;2023-07-31T05:07:18;97166.97;;;20.27;48.13
55171;BME280;41060;47.510;8.680;2023-07-31T05:09:45;97163.03;;;20.52;47.01
55171;BME280;41060;47.510;8.680;2023-07-31T05:12:11;97168.22;;;20.39;46.70
55171;BME280;41060;47.510;8.680;2023-07-31T05:14:39;97172.19;;;19.75;48.31
55171;BME280;41060;47.510;8.680;2023-07-31T05:17:06;97173.28;;;19.88;48.63
55171;BME280;41060;47.510;8.680;2023-07-31T05:19:35;97174.16;;;19.81;48.84
55171;BME280;41060;47.510;8.680;2023-07-31T05:22:03;97175.41;;;19.39;50.06
55171;BME280;41060;47.510;8.680;2023-07-31T05:24:31;97170.47;;;19.20;50.32
55171;BME280;41060;47.510;8.680;2023-07-31T05:26:57;97175.00;;;19.19;50.29
55171;BME280;41060;47.510;8.680;2023-07-31T05:29:24;97186.91;;;19.17;50.58
55171;BME280;41060;47.510;8.680;2023-07-31T05:31:50;97183.09;;;19.11;50.77
55171;BME280;41060;47.510;8.680;2023-07-31T05:34:20;97178.88;;;19.17;50.55
55171;BME280;41060;47.510;8.680;2023-07-31T05:36:47;97176.84;;;19.19;50.63
55171;BME280;41060;47.510;8.680;2023-07-31T05:39:13;97188.25;;;19.21;50.51
55171;BME280;41060;47.510;8.680;2023-07-31T05:41:41;97189.59;;;19.17;51.04
55171;BME280;41060;47.510;8.680;2023-07-31T05:44:08;97170.53;;;19.43;50.48
55171;BME280;41060;47.510;8.680;2023-07-31T05:46:35;97182.28;;;19.42;50.21
55171;BME280;41060;47.510;8.680;2023-07-31T05:49:01;97179.84;;;19.63;50.31
55171;BME280;41060;47.510;8.680;2023-07-31T05:51:28;97178.56;;;19.51;50.72
55171;BME280;41060;47.510;8.680;2023-07-31T05:53:55;97177.34;;;19.84;49.93
55171;BME280;41060;47.510;8.680;2023-07-31T05:56:21;97185.56;;;19.60;50.37
55171;BME280;41060;47.510;8.680;2023-07-31T05:58:50;97187.44;;;19.51;50.69
55171;BME280;41060;47.510;8.680;2023-07-31T06:01:17;97168.84;;;19.42;50.94
55171;BME280;41060;47.510;8.680;2023-07-31T06:03:43;97185.41;;;19.84;50.31
55171;BME280;41060;47.510;8.680;2023-07-31T06:06:11;97174.19;;;20.04;48.95
55171;BME280;41060;47.510;8.680;2023-07-31T06:08:38;97174.59;;;20.15;49.09
55171;BME280;41060;47.510;8.680;2023-07-31T06:11:05;97154.00;;;20.30;48.36
55171;BME280;41060;47.510;8.680;2023-07-31T06:13:33;97116.53;;;20.29;47.69
55171;BME280;41060;47.510;8.680;2023-07-31T06:16:00;97166.41;;;20.84;47.49
55171;BME280;41060;47.510;8.680;2023-07-31T06:18:30;97158.38;;;20.98;46.95
55171;BME280;41060;47.510;8.680;2023-07-31T06:20:57;97159.38;;;21.12;46.57
55171;BME280;41060;47.510;8.680;2023-07-31T06:23:25;97163.25;;;21.24;46.13
55171;BME280;41060;47.510;8.680;2023-07-31T06:25:54;97169.31;;;21.26;46.08
55171;BME280;41060;47.510;8.680;2023-07-31T06:30:47;97167.78;;;20.65;47.57
55171;BME280;41060;47.510;8.680;2023-07-31T06:33:15;97165.50;;;20.24;49.51
55171;BME280;41060;47.510;8.680;2023-07-31T06:35:42;97148.19;;;19.73;49.29
55171;BME280;41060;47.510;8.680;2023-07-31T06:38:09;97164.13;;;19.75;50.02
55171;BME280;41060;47.510;8.680;2023-07-31T06:40:35;97173.00;;;19.52;50.68
55171;BME280;41060;47.510;8.680;2023-07-31T06:43:02;97138.03;;;19.30;51.08
55171;BME280;41060;47.510;8.680;2023-07-31T06:45:33;97168.34;;;19.38;50.28
55171;BME280;41060;47.510;8.680;2023-07-31T06:48:00;97172.00;;;19.53;50.91
55171;BME280;41060;47.510;8.680;2023-07-31T06:50:29;97170.81;;;19.56;50.17
55171;BME280;41060;47.510;8.680;2023-07-31T06:52:58;97180.63;;;19.72;49.61
55171;BME280;41060;47.510;8.680;2023-07-31T06:55:27;97168.63;;;20.05;49.29
55171;BME280;41060;47.510;8.680;2023-07-31T06:57:54;97155.59;;;20.40;48.53
55171;BME280;41060;47.510;8.680;2023-07-31T07:00:22;97150.63;;;20.81;47.35
55171;BME280;41060;47.510;8.680;2023-07-31T07:02:50;97144.25;;;21.11;45.94
55171;BME280;41060;47.510;8.680;2023-07-31T07:05:17;97140.84;;;21.38;45.44
55171;BME280;41060;47.510;8.680;2023-07-31T07:07:45;97135.31;;;21.61;44.56
55171;BME280;41060;47.510;8.680;2023-07-31T07:10:12;97133.06;;;21.79;44.50
55171;BME280;41060;47.510;8.680;2023-07-31T07:12:38;97128.94;;;21.83;42.59
55171;BME280;41060;47.510;8.680;2023-07-31T07:15:06;97130.25;;;21.88;42.52
55171;BME280;41060;47.510;8.680;2023-07-31T07:17:33;97121.56;;;21.92;43.19
55171;BME280;41060;47.510;8.680;2023-07-31T07:20:00;97129.72;;;21.99;42.38
55171;BME280;41060;47.510;8.680;2023-07-31T07:22:28;97095.25;;;21.94;42.41
55171;BME280;41060;47.510;8.680;2023-07-31T07:24:57;97124.91;;;22.15;41.39
55171;BME280;41060;47.510;8.680;2023-07-31T07:27:23;97120.19;;;22.24;40.95
55171;BME280;41060;47.510;8.680;2023-07-31T07:29:50;97126.88;;;22.07;40.33
55171;BME280;41060;47.510;8.680;2023-07-31T07:32:18;97128.75;;;22.06;40.05
55171;BME280;41060;47.510;8.680;2023-07-31T07:34:44;97129.53;;;22.00;39.41
55171;BME280;41060;47.510;8.680;2023-07-31T07:37:14;97129.47;;;21.72;39.61
55171;BME280;41060;47.510;8.680;2023-07-31T07:39:41;97134.94;;;21.64;40.57
55171;BME280;41060;47.510;8.680;2023-07-31T07:42:09;97129.91;;;21.76;40.66
55171;BME280;41060;47.510;8.680;2023-07-31T07:44:35;97124.78;;;21.66;40.38
55171;BME280;41060;47.510;8.680;2023-07-31T07:47:03;97134.88;;;21.58;41.38
55171;BME280;41060;47.510;8.680;2023-07-31T07:49:33;97137.09;;;21.54;41.28
55171;BME280;41060;47.510;8.680;2023-07-31T07:52:00;97142.50;;;21.54;41.89
55171;BME280;41060;47.510;8.680;2023-07-31T07:54:27;97145.88;;;21.77;41.86
55171;BME280;41060;47.510;8.680;2023-07-31T07:56:54;97146.84;;;21.55;40.33
55171;BME280;41060;47.510;8.680;2023-07-31T07:59:22;97144.03;;;21.63;40.50
55171;BME280;41060;47.510;8.680;2023-07-31T08:01:52;97134.09;;;21.78;40.39
55171;BME280;41060;47.510;8.680;2023-07-31T08:04:18;97138.38;;;21.94;40.08
55171;BME280;41060;47.510;8.680;2023-07-31T08:06:48;97141.44;;;22.12;39.63
55171;BME280;41060;47.510;8.680;2023-07-31T08:09:15;97137.91;;;22.12;39.75
55171;BME280;41060;47.510;8.680;2023-07-31T08:11:41;97132.25;;;22.28;40.23
55171;BME280;41060;47.510;8.680;2023-07-31T08:14:08;97127.09;;;22.54;39.91
55171;BME280;41060;47.510;8.680;2023-07-31T08:16:36;97121.03;;;22.46;38.44
55171;BME280;41060;47.510;8.680;2023-07-31T08:19:03;97117.97;;;22.34;37.99
55171;BME280;41060;47.510;8.680;2023-07-31T08:21:29;97117.34;;;22.53;38.35
55171;BME280;41060;47.510;8.680;2023-07-31T08:23:56;97112.41;;;22.63;38.01
55171;BME280;41060;47.510;8.680;2023-07-31T08:26:23;97102.72;;;22.69;38.68
55171;BME280;41060;47.510;8.680;2023-07-31T08:28:49;97109.13;;;22.68;37.85
55171;BME280;41060;47.510;8.680;2023-07-31T08:31:19;97109.47;;;22.58;38.04
55171;BME280;41060;47.510;8.680;2023-07-31T08:33:47;97102.03;;;22.60;37.34
55171;BME280;41060;47.510;8.680;2023-07-31T08:36:13;97106.78;;;22.58;38.01
55171;BME280;41060;47.510;8.680;2023-07-31T08:38:41;97104.06;;;22.58;37.40
55171;BME280;41060;47.510;8.680;2023-07-31T08:41:07;97094.63;;;22.41;37.74
55171;BME280;41060;47.510;8.680;2023-07-31T08:43:35;97111.63;;;22.42;37.66
55171;BME280;41060;47.510;8.680;2023-07-31T08:46:03;97111.97;;;22.32;38.04
55171;BME280;41060;47.510;8.680;2023-07-31T08:48:31;97112.88;;;22.18;38.52
55171;BME280;41060;47.510;8.680;2023-07-31T08:50:59;97078.50;;;21.77;38.01
55171;BME280;41060;47.510;8.680;2023-07-31T08:53:26;97103.72;;;21.91;38.55
55171;BME280;41060;47.510;8.680;2023-07-31T08:55:53;97093.78;;;22.19;38.75
55171;BME280;41060;47.510;8.680;2023-07-31T08:58:20;97088.59;;;22.18;39.10
55171;BME280;41060;47.510;8.680;2023-07-31T09:00:48;97079.09;;;22.22;38.75
55171;BME280;41060;47.510;8.680;2023-07-31T09:03:17;97083.13;;;22.60;38.13
55171;BME280;41060;47.510;8.680;2023-07-31T09:05:45;97089.25;;;22.48;37.50
55171;BME280;41060;47.510;8.680;2023-07-31T09:08:18;97085.03;;;22.39;39.19
55171;BME280;41060;47.510;8.680;2023-07-31T09:10:46;97082.63;;;22.22;37.93
55171;BME280;41060;47.510;8.680;2023-07-31T09:13:14;97085.78;;;22.05;38.39
55171;BME280;41060;47.510;8.680;2023-07-31T09:15:43;97082.78;;;22.42;38.47
55171;BME280;41060;47.510;8.680;2023-07-31T09:18:11;97069.31;;;22.77;38.30
55171;BME280;41060;47.510;8.680;2023-07-31T09:20:38;97077.81;;;23.15;37.56
55171;BME280;41060;47.510;8.680;2023-07-31T09:23:05;97072.06;;;22.83;37.56
55171;BME280;41060;47.510;8.680;2023-07-31T09:25:35;97070.66;;;23.00;36.81
55171;BME280;41060;47.510;8.680;2023-07-31T09:28:03;97068.09;;;23.27;36.07
55171;BME280;41060;47.510;8.680;2023-07-31T09:30:30;97056.84;;;23.23;36.81
55171;BME280;41060;47.510;8.680;2023-07-31T09:33:01;97066.09;;;23.01;38.41
55171;BME280;41060;47.510;8.680;2023-07-31T09:35:29;97057.97;;;23.42;37.48
55171;BME280;41060;47.510;8.680;2023-07-31T09:37:58;97057.53;;;23.38;37.49
55171;BME280;41060;47.510;8.680;2023-07-31T09:40:26;97062.44;;;23.15;37.13
55171;BME280;41060;47.510;8.680;2023-07-31T09:42:56;97072.69;;;23.33;38.05
55171;BME280;41060;47.510;8.680;2023-07-31T09:45:23;97068.25;;;23.12;36.42
55171;BME280;41060;47.510;8.680;2023-07-31T09:47:50;97069.00;;;22.99;37.30
55171;BME280;41060;47.510;8.680;2023-07-31T09:50:17;97059.47;;;23.03;36.14
55171;BME280;41060;47.510;8.680;2023-07-31T09:52:44;97041.28;;;23.19;36.59
55171;BME280;41060;47.510;8.680;2023-07-31T09:55:11;97033.22;;;23.45;36.77
55171;BME280;41060;47.510;8.680;2023-07-31T09:57:39;97038.81;;;23.30;35.76
55171;BME280;41060;47.510;8.680;2023-07-31T10:00:09;97030.03;;;23.22;36.47
55171;BME280;41060;47.510;8.680;2023-07-31T10:02:37;97032.72;;;23.15;34.62
55171;BME280;41060;47.510;8.680;2023-07-31T10:05:05;97046.59;;;22.99;35.01
55171;BME280;41060;47.510;8.680;2023-07-31T10:07:36;97045.53;;;23.00;34.59
55171;BME280;41060;47.510;8.680;2023-07-31T10:10:07;97039.03;;;23.35;35.21
55171;BME280;41060;47.510;8.680;2023-07-31T10:12:36;97027.03;;;23.58;34.23
55171;BME280;41060;47.510;8.680;2023-07-31T10:15:09;97026.78;;;23.46;34.23
55171;BME280;41060;47.510;8.680;2023-07-31T10:17:36;97024.28;;;23.45;34.94
55171;BME280;41060;47.510;8.680;2023-07-31T10:20:06;97020.16;;;23.49;35.38
55171;BME280;41060;47.510;8.680;2023-07-31T10:22:34;97012.63;;;23.37;34.76
55171;BME280;41060;47.510;8.680;2023-07-31T10:25:03;97021.75;;;23.23;35.15
55171;BME280;41060;47.510;8.680;2023-07-31T10:27:30;97015.09;;;23.19;34.48
55171;BME280;41060;47.510;8.680;2023-07-31T10:30:01;97009.88;;;23.11;34.60
55171;BME280;41060;47.510;8.680;2023-07-31T10:32:31;97000.22;;;22.89;35.25
55171;BME280;41060;47.510;8.680;2023-07-31T10:35:00;96992.66;;;23.12;34.70
55171;BME280;41060;47.510;8.680;2023-07-31T10:37:29;96976.06;;;23.28;35.52
55171;BME280;41060;47.510;8.680;2023-07-31T10:40:00;96984.38;;;23.60;34.80
55171;BME280;41060;47.510;8.680;2023-07-31T10:42:29;96972.75;;;24.05;35.20
55171;BME280;41060;47.510;8.680;2023-07-31T10:44:57;96973.31;;;24.53;33.67
55171;BME280;41060;47.510;8.680;2023-07-31T10:47:24;96977.69;;;24.48;32.61
55171;BME280;41060;47.510;8.680;2023-07-31T10:49:52;96972.75;;;24.05;32.94
55171;BME280;41060;47.510;8.680;2023-07-31T10:52:21;96961.13;;;23.92;32.75
55171;BME280;41060;47.510;8.680;2023-07-31T10:54:49;96964.50;;;23.81;32.62
55171;BME280;41060;47.510;8.680;2023-07-31T10:57:20;96960.84;;;24.33;33.21
55171;BME280;41060;47.510;8.680;2023-07-31T10:59:47;96955.94;;;24.74;32.68
55171;BME280;41060;47.510;8.680;2023-07-31T11:02:24;96909.56;;;24.58;31.85
55171;BME280;41060;47.510;8.680;2023-07-31T11:05:17;96947.41;;;25.15;31.08
55171;BME280;41060;47.510;8.680;2023-07-31T11:07:48;96943.59;;;24.91;30.73
55171;BME280;41060;47.510;8.680;2023-07-31T11:10:18;96937.34;;;24.84;31.04
55171;BME280;41060;47.510;8.680;2023-07-31T11:12:45;96927.59;;;24.83;30.66
55171;BME280;41060;47.510;8.680;2023-07-31T11:15:15;96927.03;;;25.13;30.98
55171;BME280;41060;47.510;8.680;2023-07-31T11:17:41;96917.31;;;24.92;30.56
55171;BME280;41060;47.510;8.680;2023-07-31T11:20:08;96929.75;;;25.13;31.08
55171;BME280;41060;47.510;8.680;2023-07-31T11:22:37;96922.91;;;24.97;31.42
55171;BME280;41060;47.510;8.680;2023-07-31T11:25:04;96919.63;;;24.88;30.33
55171;BME280;41060;47.510;8.680;2023-07-31T11:27:31;96904.22;;;25.27;30.39
55171;BME280;41060;47.510;8.680;2023-07-31T11:30:01;96914.22;;;25.51;30.64
55171;BME280;41060;47.510;8.680;2023-07-31T11:32:28;96916.34;;;25.74;30.86
55171;BME280;41060;47.510;8.680;2023-07-31T11:34:54;96913.00;;;25.97;30.64
55171;BME280;41060;47.510;8.680;2023-07-31T11:37:22;96915.56;;;25.67;30.67
55171;BME280;41060;47.510;8.680;2023-07-31T11:40:01;96894.28;;;25.89;30.65
55171;BME280;41060;47.510;8.680;2023-07-31T11:42:29;96922.00;;;26.16;30.03
55171;BME280;41060;47.510;8.680;2023-07-31T11:44:55;96918.59;;;26.02;30.05
55171;BME280;41060;47.510;8.680;2023-07-31T11:47:22;96916.19;;;25.69;29.24
55171;BME280;41060;47.510;8.680;2023-07-31T11:49:49;96914.63;;;25.55;29.78
55171;BME280;41060;47.510;8.680;2023-07-31T11:52:17;96905.19;;;26.07;30.14
55171;BME280;41060;47.510;8.680;2023-07-31T11:54:45;96905.47;;;25.99;29.82
55171;BME280;41060;47.510;8.680;2023-07-31T11:57:14;96898.66;;;26.33;29.90
55171;BME280;41060;47.510;8.680;2023-07-31T11:59:42;96902.72;;;26.24;28.97
55171;BME280;41060;47.510;8.680;2023-07-31T12:02:09;96896.22;;;26.61;29.30
55171;BME280;41060;47.510;8.680;2023-07-31T12:04:36;96895.19;;;26.92;29.33
55171;BME280;41060;47.510;8.680;2023-07-31T12:07:04;96892.81;;;26.48;27.75
55171;BME280;41060;47.510;8.680;2023-07-31T12:09:30;96914.75;;;26.10;28.81
55171;BME280;41060;47.510;8.680;2023-07-31T12:11:57;96897.81;;;26.14;29.74
55171;BME280;41060;47.510;8.680;2023-07-31T12:14:27;96884.56;;;26.42;29.98
55171;BME280;41060;47.510;8.680;2023-07-31T12:16:54;96882.28;;;26.58;29.07
55171;BME280;41060;47.510;8.680;2023-07-31T12:19:22;96874.84;;;26.35;29.03
55171;BME280;41060;47.510;8.680;2023-07-31T12:21:53;96871.69;;;26.38;29.57
55171;BME280;41060;47.510;8.680;2023-07-31T12:24:19;96866.28;;;26.13;30.03
55171;BME280;41060;47.510;8.680;2023-07-31T12:26:48;96861.78;;;26.43;30.89
55171;BME280;41060;47.510;8.680;2023-07-31T12:29:15;96855.97;;;26.70;29.55
55171;BME280;41060;47.510;8.680;2023-07-31T12:31:42;96851.91;;;27.09;29.46
55171;BME280;41060;47.510;8.680;2023-07-31T12:34:16;96854.09;;;27.42;27.74
55171;BME280;41060;47.510;8.680;2023-07-31T12:36:44;96841.34;;;27.01;26.94
55171;BME280;41060;47.510;8.680;2023-07-31T12:39:11;96856.22;;;26.87;27.37
55171;BME280;41060;47.510;8.680;2023-07-31T12:41:37;96844.56;;;26.50;28.27
55171;BME280;41060;47.510;8.680;2023-07-31T12:44:04;96845.06;;;26.47;27.84
55171;BME280;41060;47.510;8.680;2023-07-31T12:46:31;96849.72;;;26.88;28.57
55171;BME280;41060;47.510;8.680;2023-07-31T12:48:59;96836.25;;;26.63;27.71
55171;BME280;41060;47.510;8.680;2023-07-31T12:51:25;96831.69;;;26.75;28.72
55171;BME280;41060;47.510;8.680;2023-07-31T12:53:52;96822.59;;;27.11;28.16
55171;BME280;41060;47.510;8.680;2023-07-31T12:56:19;96815.94;;;27.60;27.78
55171;BME280;41060;47.510;8.680;2023-07-31T12:58:45;96813.31;;;27.88;25.98
55171;BME280;41060;47.510;8.680;2023-07-31T13:01:12;96788.72;;;27.83;26.69
55171;BME280;41060;47.510;8.680;2023-07-31T13:03:39;96808.13;;;27.52;26.03
55171;BME280;41060;47.510;8.680;2023-07-31T13:06:07;96802.31;;;27.25;26.94
55171;BME280;41060;47.510;8.680;2023-07-31T13:08:34;96791.09;;;27.21;26.56